Laracha, Spain
Current Conditions -  °F | °C
As of 10:00 PM on Sunday 23 Nov 2014 (Local Time) from LECO Reporting Station
Scattered Clouds Scattered Clouds  
Wind Chill: 54°   Ceiling: Unl
Heat Index: 54°   Visibility: 6mi
Dew Point: 52°   Wind: 8mph
Humidity: 94%   Direction: 40°NE
Pressure: 30.09"   Gusts: NA
Location:  43.25°N, 8.59°W
Report Text: LECO 232100Z 04007KT 350V080 9999 SCT018 SCT045 12/11 Q1019 TEMPO BKN014
Loading
Personal Weather Stations






























Interactive Weather Map New forecast layout! Learn more

10-Day Weather Forecast

Advertisements
Track Severe Weather on mobile